sensor_id;sensor_type;location;lat;lon;timestamp;pressure;altitude;pressure_sealevel;temperature;humidity
25232;BME280;13176;51.140;6.290;2022-10-19T00:01:27;102124.88;;;13.64;71.87
25232;BME280;13176;51.140;6.290;2022-10-19T00:03:54;102165.00;;;13.89;72.77
25232;BME280;13176;51.140;6.290;2022-10-19T00:06:24;102158.94;;;13.74;73.08
25232;BME280;13176;51.140;6.290;2022-10-19T00:08:53;102164.19;;;13.74;72.88
25232;BME280;13176;51.140;6.290;2022-10-19T00:11:20;102102.19;;;13.48;72.49
25232;BME280;13176;51.140;6.290;2022-10-19T00:13:46;102136.22;;;13.67;72.04
25232;BME280;13176;51.140;6.290;2022-10-19T00:16:14;102138.00;;;13.64;71.97
25232;BME280;13176;51.140;6.290;2022-10-19T00:18:42;102151.97;;;13.64;73.28
25232;BME280;13176;51.140;6.290;2022-10-19T00:21:10;102107.47;;;13.33;72.63
25232;BME280;13176;51.140;6.290;2022-10-19T00:23:37;102021.06;;;12.77;73.46
25232;BME280;13176;51.140;6.290;2022-10-19T00:26:03;102107.50;;;13.22;72.76
25232;BME280;13176;51.140;6.290;2022-10-19T00:28:30;102137.19;;;13.33;72.72
25232;BME280;13176;51.140;6.290;2022-10-19T00:31:01;102122.34;;;13.28;72.34
25232;BME280;13176;51.140;6.290;2022-10-19T00:33:28;102131.09;;;13.25;72.70
25232;BME280;13176;51.140;6.290;2022-10-19T00:35:54;102113.66;;;13.00;74.03
25232;BME280;13176;51.140;6.290;2022-10-19T00:38:21;102097.88;;;12.76;74.99
25232;BME280;13176;51.140;6.290;2022-10-19T00:40:47;102096.16;;;12.75;75.31
25232;BME280;13176;51.140;6.290;2022-10-19T00:43:15;102159.91;;;13.13;74.72
25232;BME280;13176;51.140;6.290;2022-10-19T00:45:42;102159.91;;;13.16;73.96
25232;BME280;13176;51.140;6.290;2022-10-19T00:48:10;102166.03;;;13.24;73.87
25232;BME280;13176;51.140;6.290;2022-10-19T00:50:39;102123.25;;;13.12;73.25
25232;BME280;13176;51.140;6.290;2022-10-19T00:53:06;102022.84;;;12.54;73.00
25232;BME280;13176;51.140;6.290;2022-10-19T00:55:32;102157.28;;;13.40;73.28
25232;BME280;13176;51.140;6.290;2022-10-19T00:58:01;102150.28;;;13.45;72.53
25232;BME280;13176;51.140;6.290;2022-10-19T01:00:28;102142.41;;;13.35;72.22
25232;BME280;13176;51.140;6.290;2022-10-19T01:02:55;102138.06;;;13.23;72.40
25232;BME280;13176;51.140;6.290;2022-10-19T01:05:24;102157.28;;;13.37;72.42
25232;BME280;13176;51.140;6.290;2022-10-19T01:07:51;102125.84;;;13.13;71.86
25232;BME280;13176;51.140;6.290;2022-10-19T01:10:25;102007.13;;;12.46;71.93
25232;BME280;13176;51.140;6.290;2022-10-19T01:18:43;102142.44;;;12.88;73.59
25232;BME280;13176;51.140;6.290;2022-10-19T01:21:19;102143.31;;;12.84;73.70
25232;BME280;13176;51.140;6.290;2022-10-19T01:26:40;102139.81;;;12.82;73.91
25232;BME280;13176;51.140;6.290;2022-10-19T01:32:23;102095.28;;;12.76;72.26
25232;BME280;13176;51.140;6.290;2022-10-19T01:40:27;102124.13;;;13.03;71.54
25232;BME280;13176;51.140;6.290;2022-10-19T01:43:32;102122.38;;;12.93;71.81
25232;BME280;13176;51.140;6.290;2022-10-19T01:46:29;102084.81;;;12.51;72.76
25232;BME280;13176;51.140;6.290;2022-10-19T01:49:07;102076.94;;;12.47;72.97
25232;BME280;13176;51.140;6.290;2022-10-19T01:51:40;102085.69;;;12.60;73.07
25232;BME280;13176;51.140;6.290;2022-10-19T01:54:10;102042.03;;;12.42;72.58
25232;BME280;13176;51.140;6.290;2022-10-19T01:56:40;102077.84;;;12.63;71.69
25232;BME280;13176;51.140;6.290;2022-10-19T01:59:09;102051.63;;;12.48;72.47
25232;BME280;13176;51.140;6.290;2022-10-19T02:01:41;102118.88;;;12.93;71.78
25232;BME280;13176;51.140;6.290;2022-10-19T02:04:10;102110.13;;;12.86;71.55
25232;BME280;13176;51.140;6.290;2022-10-19T02:06:39;102106.66;;;12.93;71.08
25232;BME280;13176;51.140;6.290;2022-10-19T02:09:06;102090.03;;;12.76;71.13
25232;BME280;13176;51.140;6.290;2022-10-19T02:11:32;102100.50;;;12.85;71.52
25232;BME280;13176;51.140;6.290;2022-10-19T02:14:06;102083.94;;;12.71;71.38
25232;BME280;13176;51.140;6.290;2022-10-19T02:16:43;102073.47;;;12.53;71.52
25232;BME280;13176;51.140;6.290;2022-10-19T02:19:13;102059.47;;;12.43;71.96
25232;BME280;13176;51.140;6.290;2022-10-19T02:21:40;102076.94;;;12.49;71.40
25232;BME280;13176;51.140;6.290;2022-10-19T02:24:07;101981.78;;;11.86;71.78
25232;BME280;13176;51.140;6.290;2022-10-19T02:26:33;102089.16;;;12.48;72.39
25232;BME280;13176;51.140;6.290;2022-10-19T02:29:00;101994.00;;;11.78;72.32
25232;BME280;13176;51.140;6.290;2022-10-19T02:31:26;102040.22;;;12.02;72.93
25232;BME280;13176;51.140;6.290;2022-10-19T02:33:53;102069.94;;;12.19;73.01
25232;BME280;13176;51.140;6.290;2022-10-19T02:36:20;102068.16;;;12.12;73.52
25232;BME280;13176;51.140;6.290;2022-10-19T02:38:46;102076.91;;;12.14;72.67
25232;BME280;13176;51.140;6.290;2022-10-19T02:41:22;101973.06;;;11.72;72.49
25232;BME280;13176;51.140;6.290;2022-10-19T02:43:55;102048.13;;;12.14;72.77
25232;BME280;13176;51.140;6.290;2022-10-19T02:46:31;102061.19;;;12.21;73.11
25232;BME280;13176;51.140;6.290;2022-10-19T02:49:02;102050.75;;;12.17;72.12
25232;BME280;13176;51.140;6.290;2022-10-19T02:51:32;102056.00;;;12.29;71.81
25232;BME280;13176;51.140;6.290;2022-10-19T02:53:59;101965.22;;;11.74;71.84
25232;BME280;13176;51.140;6.290;2022-10-19T02:56:30;102062.09;;;12.32;72.13
25232;BME280;13176;51.140;6.290;2022-10-19T02:58:57;101965.22;;;11.62;72.73
25232;BME280;13176;51.140;6.290;2022-10-19T03:01:23;102034.13;;;12.06;72.53
25232;BME280;13176;51.140;6.290;2022-10-19T03:03:50;101939.91;;;11.56;72.42
25232;BME280;13176;51.140;6.290;2022-10-19T03:06:16;102026.28;;;11.94;73.24
25232;BME280;13176;51.140;6.290;2022-10-19T03:08:43;102030.63;;;11.83;73.54
25232;BME280;13176;51.140;6.290;2022-10-19T03:11:09;102047.16;;;11.76;75.34
25232;BME280;13176;51.140;6.290;2022-10-19T03:13:35;102059.34;;;11.74;74.78
25232;BME280;13176;51.140;6.290;2022-10-19T03:16:10;102050.63;;;11.63;74.99
25232;BME280;13176;51.140;6.290;2022-10-19T03:18:37;102069.75;;;11.59;75.73
25232;BME280;13176;51.140;6.290;2022-10-19T03:21:07;102063.75;;;11.79;76.31
25232;BME280;13176;51.140;6.290;2022-10-19T03:23:34;102073.34;;;11.88;75.77
25232;BME280;13176;51.140;6.290;2022-10-19T03:26:01;102069.91;;;12.01;75.57
25232;BME280;13176;51.140;6.290;2022-10-19T03:28:27;102040.22;;;11.93;74.17
25232;BME280;13176;51.140;6.290;2022-10-19T03:30:54;102035.03;;;11.99;73.82
25232;BME280;13176;51.140;6.290;2022-10-19T03:33:21;101963.47;;;11.61;73.32
25232;BME280;13176;51.140;6.290;2022-10-19T03:35:47;102048.97;;;12.13;72.98
25232;BME280;13176;51.140;6.290;2022-10-19T03:38:14;102027.16;;;12.05;72.88
25232;BME280;13176;51.140;6.290;2022-10-19T03:40:41;102045.50;;;12.14;72.49
25232;BME280;13176;51.140;6.290;2022-10-19T03:43:07;101929.38;;;11.37;72.15
25232;BME280;13176;51.140;6.290;2022-10-19T03:45:34;101998.31;;;11.69;72.32
25232;BME280;13176;51.140;6.290;2022-10-19T03:48:00;102011.38;;;11.69;73.04
25232;BME280;13176;51.140;6.290;2022-10-19T03:50:26;102013.09;;;11.59;73.11
25232;BME280;13176;51.140;6.290;2022-10-19T03:52:54;101844.63;;;10.54;73.30
25232;BME280;13176;51.140;6.290;2022-10-19T03:55:20;101936.22;;;11.01;73.40
25232;BME280;13176;51.140;6.290;2022-10-19T03:57:46;102027.84;;;11.50;74.14
25232;BME280;13176;51.140;6.290;2022-10-19T04:00:13;101994.69;;;11.37;73.79
25232;BME280;13176;51.140;6.290;2022-10-19T04:02:40;102013.16;;;11.71;74.94
25232;BME280;13176;51.140;6.290;2022-10-19T04:05:06;101984.38;;;11.76;74.51
25232;BME280;13176;51.140;6.290;2022-10-19T04:07:33;101925.09;;;11.57;74.45
25232;BME280;13176;51.140;6.290;2022-10-19T04:09:59;102028.06;;;12.25;74.77
25232;BME280;13176;51.140;6.290;2022-10-19T04:12:26;102043.78;;;12.54;74.75
25232;BME280;13176;51.140;6.290;2022-10-19T04:14:52;102000.16;;;12.36;75.22
25232;BME280;13176;51.140;6.290;2022-10-19T04:17:23;102035.06;;;12.64;75.60
25232;BME280;13176;51.140;6.290;2022-10-19T04:19:50;102026.34;;;12.56;75.03
25232;BME280;13176;51.140;6.290;2022-10-19T04:22:16;101930.34;;;12.05;75.32
25232;BME280;13176;51.140;6.290;2022-10-19T04:24:42;102015.84;;;12.56;75.74
25232;BME280;13176;51.140;6.290;2022-10-19T04:27:09;102042.91;;;12.75;75.64
25232;BME280;13176;51.140;6.290;2022-10-19T04:29:35;102016.72;;;12.66;75.27
25232;BME280;13176;51.140;6.290;2022-10-19T04:32:01;102035.91;;;12.78;75.96
25232;BME280;13176;51.140;6.290;2022-10-19T04:34:28;102017.59;;;12.69;76.09
25232;BME280;13176;51.140;6.290;2022-10-19T04:36:54;102041.13;;;12.81;76.21
25232;BME280;13176;51.140;6.290;2022-10-19T04:39:24;101970.47;;;12.54;76.07
25232;BME280;13176;51.140;6.290;2022-10-19T04:41:50;102025.44;;;12.80;76.36
25232;BME280;13176;51.140;6.290;2022-10-19T04:44:16;102010.56;;;12.80;76.69
25232;BME280;13176;51.140;6.290;2022-10-19T04:46:43;102054.25;;;13.08;76.96
25232;BME280;13176;51.140;6.290;2022-10-19T04:49:09;101893.72;;;12.23;77.38
25232;BME280;13176;51.140;6.290;2022-10-19T04:51:35;101920.78;;;12.37;77.16
25232;BME280;13176;51.140;6.290;2022-10-19T04:54:02;102035.03;;;12.97;77.39
25232;BME280;13176;51.140;6.290;2022-10-19T04:56:29;102013.22;;;12.88;77.58
25232;BME280;13176;51.140;6.290;2022-10-19T04:58:58;101939.06;;;12.43;77.15
25232;BME280;13176;51.140;6.290;2022-10-19T05:01:27;102069.94;;;13.16;77.65
25232;BME280;13176;51.140;6.290;2022-10-19T05:03:59;102033.28;;;12.87;77.39
25232;BME280;13176;51.140;6.290;2022-10-19T05:06:26;102040.28;;;12.94;77.48
25232;BME280;13176;51.140;6.290;2022-10-19T05:08:52;101953.91;;;12.44;77.82
25232;BME280;13176;51.140;6.290;2022-10-19T05:11:19;102066.44;;;13.12;78.22
25232;BME280;13176;51.140;6.290;2022-10-19T05:13:46;102052.50;;;13.07;78.18
25232;BME280;13176;51.140;6.290;2022-10-19T05:16:15;102055.09;;;13.15;78.13
25232;BME280;13176;51.140;6.290;2022-10-19T05:18:49;102038.53;;;13.02;77.58
25232;BME280;13176;51.140;6.290;2022-10-19T05:21:16;102033.28;;;13.04;78.32
25232;BME280;13176;51.140;6.290;2022-10-19T05:23:43;101993.13;;;12.76;78.28
25232;BME280;13176;51.140;6.290;2022-10-19T05:26:13;102026.31;;;13.01;78.08
25232;BME280;13176;51.140;6.290;2022-10-19T05:28:39;101980.03;;;12.79;77.77
25232;BME280;13176;51.140;6.290;2022-10-19T05:31:11;102036.72;;;13.16;78.25
25232;BME280;13176;51.140;6.290;2022-10-19T05:33:38;102029.75;;;13.15;78.22
25232;BME280;13176;51.140;6.290;2022-10-19T05:36:28;102036.69;;;13.28;77.79
25232;BME280;13176;51.140;6.290;2022-10-19T05:38:56;102034.97;;;13.18;78.06
25232;BME280;13176;51.140;6.290;2022-10-19T05:41:24;102029.78;;;13.09;78.62
25232;BME280;13176;51.140;6.290;2022-10-19T05:43:56;102031.53;;;13.00;78.13
25232;BME280;13176;51.140;6.290;2022-10-19T05:46:23;101996.63;;;12.75;78.56
25232;BME280;13176;51.140;6.290;2022-10-19T05:48:50;101993.16;;;12.67;78.61
25232;BME280;13176;51.140;6.290;2022-10-19T05:51:19;102018.44;;;12.86;78.58
25232;BME280;13176;51.140;6.290;2022-10-19T05:53:45;102008.88;;;12.67;78.66
25232;BME280;13176;51.140;6.290;2022-10-19T05:56:16;102000.16;;;12.55;79.07
25232;BME280;13176;51.140;6.290;2022-10-19T05:58:43;101991.41;;;12.43;79.16
25232;BME280;13176;51.140;6.290;2022-10-19T06:01:09;102014.09;;;12.47;79.18
25232;BME280;13176;51.140;6.290;2022-10-19T06:03:36;101956.53;;;12.17;79.48
25232;BME280;13176;51.140;6.290;2022-10-19T06:06:04;102023.72;;;12.59;79.60
25232;BME280;13176;51.140;6.290;2022-10-19T06:08:32;102028.94;;;12.58;79.68
25232;BME280;13176;51.140;6.290;2022-10-19T06:11:08;102028.06;;;12.63;80.08
25232;BME280;13176;51.140;6.290;2022-10-19T06:13:35;101918.19;;;11.98;79.89
25232;BME280;13176;51.140;6.290;2022-10-19T06:16:03;101962.63;;;12.29;79.73
25232;BME280;13176;51.140;6.290;2022-10-19T06:18:29;102007.13;;;12.57;79.82
25232;BME280;13176;51.140;6.290;2022-10-19T06:21:01;101981.84;;;12.43;80.10
25232;BME280;13176;51.140;6.290;2022-10-19T06:23:27;101999.28;;;12.48;79.81
25232;BME280;13176;51.140;6.290;2022-10-19T06:25:53;102000.16;;;12.50;79.72
25232;BME280;13176;51.140;6.290;2022-10-19T06:28:20;101987.06;;;12.48;79.60
25232;BME280;13176;51.140;6.290;2022-10-19T06:30:46;101999.25;;;12.59;79.78
25232;BME280;13176;51.140;6.290;2022-10-19T06:33:13;101991.41;;;12.54;79.69
25232;BME280;13176;51.140;6.290;2022-10-19T06:35:39;102004.50;;;12.69;79.89
25232;BME280;13176;51.140;6.290;2022-10-19T06:38:08;101865.88;;;11.92;79.70
25232;BME280;13176;51.140;6.290;2022-10-19T06:40:35;102006.22;;;12.87;79.60
25232;BME280;13176;51.140;6.290;2022-10-19T06:43:01;101995.75;;;12.84;79.54
25232;BME280;13176;51.140;6.290;2022-10-19T06:45:27;101955.63;;;12.71;79.25
25232;BME280;13176;51.140;6.290;2022-10-19T06:48:00;101954.75;;;12.69;79.58
25232;BME280;13176;51.140;6.290;2022-10-19T06:50:32;101987.03;;;12.91;79.63
25232;BME280;13176;51.140;6.290;2022-10-19T06:52:59;101973.03;;;12.83;79.61
25232;BME280;13176;51.140;6.290;2022-10-19T06:55:25;102014.06;;;13.03;79.96
25232;BME280;13176;51.140;6.290;2022-10-19T06:57:52;101993.97;;;13.04;79.62
25232;BME280;13176;51.140;6.290;2022-10-19T07:00:18;101942.53;;;12.74;79.96
25232;BME280;13176;51.140;6.290;2022-10-19T07:02:44;102012.28;;;13.11;80.52
25232;BME280;13176;51.140;6.290;2022-10-19T07:05:11;101891.94;;;12.43;80.14
25232;BME280;13176;51.140;6.290;2022-10-19T07:07:37;101989.63;;;13.04;80.43
25232;BME280;13176;51.140;6.290;2022-10-19T07:10:04;102002.66;;;13.21;79.68
25232;BME280;13176;51.140;6.290;2022-10-19T07:12:30;101979.97;;;13.14;79.47
25232;BME280;13176;51.140;6.290;2022-10-19T07:14:57;102002.66;;;13.24;79.82
25232;BME280;13176;51.140;6.290;2022-10-19T07:17:23;101992.13;;;13.30;79.67
25232;BME280;13176;51.140;6.290;2022-10-19T07:19:50;101972.94;;;13.17;79.56
25232;BME280;13176;51.140;6.290;2022-10-19T07:22:16;102008.72;;;13.39;79.87
25232;BME280;13176;51.140;6.290;2022-10-19T07:24:50;101935.44;;;13.06;79.75
25232;BME280;13176;51.140;6.290;2022-10-19T07:27:17;102013.03;;;13.51;79.96
25232;BME280;13176;51.140;6.290;2022-10-19T07:29:43;102006.94;;;13.41;80.21
25232;BME280;13176;51.140;6.290;2022-10-19T07:32:10;101916.25;;;12.98;80.04
25232;BME280;13176;51.140;6.290;2022-10-19T07:34:36;101974.66;;;13.30;80.08
25232;BME280;13176;51.140;6.290;2022-10-19T07:37:02;102022.56;;;13.62;79.95
25232;BME280;13176;51.140;6.290;2022-10-19T07:39:29;102014.75;;;13.58;80.40
25232;BME280;13176;51.140;6.290;2022-10-19T07:41:55;101999.06;;;13.47;80.37
25232;BME280;13176;51.140;6.290;2022-10-19T07:44:22;101984.22;;;13.46;80.34
25232;BME280;13176;51.140;6.290;2022-10-19T07:46:48;101991.09;;;13.62;80.25
25232;BME280;13176;51.140;6.290;2022-10-19T07:49:15;102032.03;;;13.94;80.58
25232;BME280;13176;51.140;6.290;2022-10-19T07:51:45;101916.97;;;13.30;80.34
25232;BME280;13176;51.140;6.290;2022-10-19T07:54:12;102036.34;;;14.03;80.05
25232;BME280;13176;51.140;6.290;2022-10-19T07:56:38;101921.28;;;13.43;79.91
25232;BME280;13176;51.140;6.290;2022-10-19T07:59:05;101963.09;;;13.70;80.24
25232;BME280;13176;51.140;6.290;2022-10-19T08:01:34;102028.41;;;14.10;80.36
25232;BME280;13176;51.140;6.290;2022-10-19T08:04:03;101999.66;;;13.91;80.16
25232;BME280;13176;51.140;6.290;2022-10-19T08:06:49;102011.00;;;14.00;79.80
25232;BME280;13176;51.140;6.290;2022-10-19T08:09:15;101892.53;;;13.28;80.17
25232;BME280;13176;51.140;6.290;2022-10-19T08:12:03;101915.91;;;13.61;80.21
25232;BME280;13176;51.140;6.290;2022-10-19T08:14:29;101949.91;;;13.82;80.37
25232;BME280;13176;51.140;6.290;2022-10-19T08:16:56;101978.63;;;14.00;80.07
25232;BME280;13176;51.140;6.290;2022-10-19T08:19:22;101982.13;;;13.96;79.21
25232;BME280;13176;51.140;6.290;2022-10-19T08:21:49;101983.84;;;14.03;79.44
25232;BME280;13176;51.140;6.290;2022-10-19T08:24:18;101842.69;;;13.31;78.56
25232;BME280;13176;51.140;6.290;2022-10-19T08:26:45;101981.19;;;14.15;78.50
25232;BME280;13176;51.140;6.290;2022-10-19T08:29:14;101972.41;;;14.13;78.67
25232;BME280;13176;51.140;6.290;2022-10-19T08:31:42;101984.63;;;14.21;79.02
25232;BME280;13176;51.140;6.290;2022-10-19T08:34:10;102016.00;;;14.36;79.61
25232;BME280;13176;51.140;6.290;2022-10-19T08:36:36;101995.88;;;14.34;79.10
25232;BME280;13176;51.140;6.290;2022-10-19T08:39:04;101974.00;;;14.32;79.16
25232;BME280;13176;51.140;6.290;2022-10-19T08:41:36;101999.16;;;14.57;79.40
25232;BME280;13176;51.140;6.290;2022-10-19T08:49:39;101993.78;;;14.72;79.19
25232;BME280;13176;51.140;6.290;2022-10-19T08:52:13;101997.19;;;14.82;79.42
25232;BME280;13176;51.140;6.290;2022-10-19T08:54:54;101995.38;;;14.87;79.68
25232;BME280;13176;51.140;6.290;2022-10-19T08:57:35;101972.63;;;14.86;79.45
25232;BME280;13176;51.140;6.290;2022-10-19T09:00:20;101931.53;;;14.80;79.02
25232;BME280;13176;51.140;6.290;2022-10-19T09:03:11;101965.34;;;15.09;79.53
25232;BME280;13176;51.140;6.290;2022-10-19T09:05:41;101980.88;;;15.30;79.36
25232;BME280;13176;51.140;6.290;2022-10-19T09:08:10;101928.53;;;15.09;78.54
25232;BME280;13176;51.140;6.290;2022-10-19T09:10:45;101972.84;;;15.42;78.36
25232;BME280;13176;51.140;6.290;2022-10-19T09:15:48;101942.19;;;15.38;77.98
25232;BME280;13176;51.140;6.290;2022-10-19T09:20:52;101971.53;;;15.73;76.50
25232;BME280;13176;51.140;6.290;2022-10-19T09:23:25;101949.72;;;15.64;76.10
25232;BME280;13176;51.140;6.290;2022-10-19T09:25:52;101934.69;;;15.73;75.47
25232;BME280;13176;51.140;6.290;2022-10-19T09:31:14;101954.38;;;16.05;75.21
25232;BME280;13176;51.140;6.290;2022-10-19T09:33:48;101914.94;;;16.01;76.22
25232;BME280;13176;51.140;6.290;2022-10-19T09:36:15;101942.84;;;16.11;75.65
25232;BME280;13176;51.140;6.290;2022-10-19T09:38:53;101946.03;;;16.31;75.67
25232;BME280;13176;51.140;6.290;2022-10-19T09:41:20;101976.47;;;16.51;74.84
25232;BME280;13176;51.140;6.290;2022-10-19T09:43:52;101978.91;;;16.60;74.30
25232;BME280;13176;51.140;6.290;2022-10-19T09:46:46;101901.41;;;16.22;73.89
25232;BME280;13176;51.140;6.290;2022-10-19T09:49:18;101926.44;;;16.47;72.84
25232;BME280;13176;51.140;6.290;2022-10-19T09:51:51;101936.78;;;16.59;72.27
25232;BME280;13176;51.140;6.290;2022-10-19T09:54:23;101931.28;;;16.71;72.00
25232;BME280;13176;51.140;6.290;2022-10-19T09:56:53;101917.44;;;16.60;72.10
25232;BME280;13176;51.140;6.290;2022-10-19T09:59:22;101915.31;;;16.78;72.72
25232;BME280;13176;51.140;6.290;2022-10-19T10:04:31;101897.34;;;16.97;70.02
25232;BME280;13176;51.140;6.290;2022-10-19T10:07:02;101941.34;;;17.37;71.34
25232;BME280;13176;51.140;6.290;2022-10-19T10:09:29;101930.66;;;17.44;72.33
25232;BME280;13176;51.140;6.290;2022-10-19T10:11:57;101887.34;;;17.51;71.07
25232;BME280;13176;51.140;6.290;2022-10-19T10:14:31;101897.28;;;18.13;68.67
25232;BME280;13176;51.140;6.290;2022-10-19T10:17:04;101867.66;;;20.07;61.56
25232;BME280;13176;51.140;6.290;2022-10-19T10:19:33;101919.94;;;22.14;55.10
25232;BME280;13176;51.140;6.290;2022-10-19T10:22:02;101922.63;;;23.14;51.05
25232;BME280;13176;51.140;6.290;2022-10-19T10:24:30;101922.91;;;23.08;50.67
25232;BME280;13176;51.140;6.290;2022-10-19T10:27:05;101914.50;;;22.97;50.57
25232;BME280;13176;51.140;6.290;2022-10-19T10:29:33;101912.84;;;23.51;47.96
25232;BME280;13176;51.140;6.290;2022-10-19T10:34:42;101916.44;;;23.69;48.15
25232;BME280;13176;51.140;6.290;2022-10-19T10:37:20;101917.75;;;23.23;49.25
25232;BME280;13176;51.140;6.290;2022-10-19T10:39:52;101902.59;;;23.06;49.61
25232;BME280;13176;51.140;6.290;2022-10-19T10:42:28;101869.78;;;22.05;51.31
25232;BME280;13176;51.140;6.290;2022-10-19T10:44:55;101883.59;;;21.05;54.40
25232;BME280;13176;51.140;6.290;2022-10-19T10:47:22;101851.03;;;20.28;56.72
25232;BME280;13176;51.140;6.290;2022-10-19T10:50:03;101878.59;;;20.24;57.02
25232;BME280;13176;51.140;6.290;2022-10-19T10:52:32;101857.16;;;20.04;58.37
25232;BME280;13176;51.140;6.290;2022-10-19T10:55:21;101886.28;;;20.06;59.89
25232;BME280;13176;51.140;6.290;2022-10-19T10:57:50;101850.53;;;19.91;60.71
25232;BME280;13176;51.140;6.290;2022-10-19T11:00:21;101849.44;;;19.98;61.00
25232;BME280;13176;51.140;6.290;2022-10-19T11:03:05;101881.84;;;20.06;60.52
25232;BME280;13176;51.140;6.290;2022-10-19T11:05:43;101842.97;;;19.79;60.99
25232;BME280;13176;51.140;6.290;2022-10-19T11:11:00;101867.19;;;19.95;61.41
25232;BME280;13176;51.140;6.290;2022-10-19T11:13:34;101880.34;;;19.99;61.78
25232;BME280;13176;51.140;6.290;2022-10-19T11:16:30;101871.03;;;20.12;59.94
25232;BME280;13176;51.140;6.290;2022-10-19T11:19:06;101853.69;;;20.28;59.62
25232;BME280;13176;51.140;6.290;2022-10-19T11:21:43;101871.38;;;20.52;59.17
25232;BME280;13176;51.140;6.290;2022-10-19T11:24:17;101829.38;;;20.40;58.85
25232;BME280;13176;51.140;6.290;2022-10-19T11:35:37;101853.00;;;20.48;59.62
25232;BME280;13176;51.140;6.290;2022-10-19T11:55:42;101790.75;;;21.25;55.40
25232;BME280;13176;51.140;6.290;2022-10-19T12:14:56;101724.47;;;21.85;52.59
25232;BME280;13176;51.140;6.290;2022-10-19T12:17:29;101769.78;;;22.41;51.97
25232;BME280;13176;51.140;6.290;2022-10-19T12:20:03;101753.28;;;22.53;50.88
25232;BME280;13176;51.140;6.290;2022-10-19T12:22:33;101752.97;;;22.96;48.65
25232;BME280;13176;51.140;6.290;2022-10-19T12:25:02;101751.56;;;23.26;48.89
25232;BME280;13176;51.140;6.290;2022-10-19T12:27:33;101754.03;;;23.64;48.63
25232;BME280;13176;51.140;6.290;2022-10-19T12:30:22;101752.84;;;23.70;48.29
25232;BME280;13176;51.140;6.290;2022-10-19T12:33:02;101747.84;;;24.15;46.33
25232;BME280;13176;51.140;6.290;2022-10-19T12:41:05;101702.13;;;24.37;44.50
25232;BME280;13176;51.140;6.290;2022-10-19T12:43:40;101731.78;;;24.48;44.36
25232;BME280;13176;51.140;6.290;2022-10-19T12:46:33;101723.81;;;24.15;45.56
25232;BME280;13176;51.140;6.290;2022-10-19T12:52:00;101695.91;;;23.71;45.56
25232;BME280;13176;51.140;6.290;2022-10-19T12:54:38;101672.47;;;23.77;45.10
25232;BME280;13176;51.140;6.290;2022-10-19T12:57:25;101681.19;;;23.81;46.08
25232;BME280;13176;51.140;6.290;2022-10-19T12:59:58;101686.44;;;23.65;45.56
25232;BME280;13176;51.140;6.290;2022-10-19T13:02:29;101619.09;;;23.11;46.64
25232;BME280;13176;51.140;6.290;2022-10-19T13:05:03;101678.66;;;23.27;47.35
25232;BME280;13176;51.140;6.290;2022-10-19T13:07:32;101661.00;;;23.08;47.66
25232;BME280;13176;51.140;6.290;2022-10-19T13:10:04;101637.44;;;22.63;48.07
25232;BME280;13176;51.140;6.290;2022-10-19T13:12:42;101611.91;;;22.22;48.62
25232;BME280;13176;51.140;6.290;2022-10-19T13:18:02;101668.34;;;22.29;49.61
25232;BME280;13176;51.140;6.290;2022-10-19T13:43:26;101591.97;;;21.36;50.86
25232;BME280;13176;51.140;6.290;2022-10-19T13:46:04;101641.81;;;21.71;51.67
25232;BME280;13176;51.140;6.290;2022-10-19T13:49:03;101612.28;;;21.57;51.59
25232;BME280;13176;51.140;6.290;2022-10-19T13:52:01;101629.84;;;21.61;51.86
25232;BME280;13176;51.140;6.290;2022-10-19T13:54:46;101592.09;;;21.33;51.29
25232;BME280;13176;51.140;6.290;2022-10-19T14:08:39;101617.22;;;21.46;53.23
25232;BME280;13176;51.140;6.290;2022-10-19T14:11:14;101610.56;;;21.36;52.64
25232;BME280;13176;51.140;6.290;2022-10-19T14:13:42;101584.41;;;21.27;52.90
25232;BME280;13176;51.140;6.290;2022-10-19T14:16:20;101617.84;;;21.51;53.00
25232;BME280;13176;51.140;6.290;2022-10-19T14:18:54;101605.78;;;21.44;52.40
25232;BME280;13176;51.140;6.290;2022-10-19T14:21:34;101584.66;;;21.41;52.87
25232;BME280;13176;51.140;6.290;2022-10-19T14:24:18;101585.34;;;21.46;52.53
25232;BME280;13176;51.140;6.290;2022-10-19T14:26:45;101587.34;;;21.61;52.59
25232;BME280;13176;51.140;6.290;2022-10-19T14:29:12;101609.19;;;21.86;51.99
25232;BME280;13176;51.140;6.290;2022-10-19T14:31:38;101588.91;;;21.65;52.04
25232;BME280;13176;51.140;6.290;2022-10-19T14:34:07;101584.41;;;21.67;51.80
25232;BME280;13176;51.140;6.290;2022-10-19T14:36:42;101581.47;;;21.73;51.99
25232;BME280;13176;51.140;6.290;2022-10-19T14:39:27;101594.66;;;21.94;51.22
25232;BME280;13176;51.140;6.290;2022-10-19T14:41:54;101538.06;;;21.72;51.84
25232;BME280;13176;51.140;6.290;2022-10-19T14:44:36;101553.31;;;21.87;51.47
25232;BME280;13176;51.140;6.290;2022-10-19T14:47:20;101576.34;;;22.06;51.44
25232;BME280;13176;51.140;6.290;2022-10-19T14:49:47;101523.56;;;21.61;51.34
25232;BME280;13176;51.140;6.290;2022-10-19T14:52:28;101558.34;;;21.75;51.29
25232;BME280;13176;51.140;6.290;2022-10-19T14:54:58;101565.66;;;21.70;51.37
25232;BME280;13176;51.140;6.290;2022-10-19T14:57:34;101570.44;;;21.82;51.56
25232;BME280;13176;51.140;6.290;2022-10-19T15:00:07;101521.84;;;21.60;51.47
25232;BME280;13176;51.140;6.290;2022-10-19T15:02:42;101570.84;;;21.73;51.29
25232;BME280;13176;51.140;6.290;2022-10-19T15:05:19;101503.38;;;21.37;51.28
25232;BME280;13176;51.140;6.290;2022-10-19T15:07:46;101525.97;;;21.47;50.47
25232;BME280;13176;51.140;6.290;2022-10-19T15:10:19;101560.34;;;21.70;51.99
25232;BME280;13176;51.140;6.290;2022-10-19T15:12:47;101527.53;;;21.51;51.73
25232;BME280;13176;51.140;6.290;2022-10-19T15:15:18;101505.13;;;21.38;51.88